aviador You're here:

KMSN Decoded Metar

MADISON in WI, USA
Report Time2017-10-21 14:53:00
UTC Time2017-10-21 15:47:10
Flight Rules vfr VFR
Wind180° at 17 Gusting to 24 kt
W.Decomp.*RWY 18: 17.0 kt HW 0.9 kt RCW
RWY 21: 15.1 kt HW 7.7 kt LCW
RWY 14: 12.4 kt HW 11.6 kt RCW
W.Rank180° ranks 1
Current wind is above 180° avg. (8.4)
Visibility9999 m
Phenomena:N/A
Clouds:Few 060 Hf
Few 150 Hf
Broken 250 Hf
Expected CloudBase > 2,400 ft AGL from Temp-Dew spread
Ceiling25,000 ft
Temp17°C (ISA +4)
Dew Point11°C (68% RH)
AAT11.2°C
QNH1015 hPa
Density Alt1,404 ft
Elevation856 ft
Report Wrong Elevation
Raw Report
METAR KMSN 211453Z 18017G24KT 10SM FEW060 FEW150 BKN250 17/11 A2996
RMK AO2 SLP144 T01720111 53003=

Extra information for KMSN:More info

Metar Taf Metar & Taf Last 4 Metars F.Rules Stats Wind Profile Meteogram Temp Stats Airport Information Weather charts Add Link Nearby VenuesMetar ALERT Operation Metar Decoded Social comments

AIRNAV info for KMSN